Airport ICAO


09:07 UTC

1°C

Broken clouds


An affordable passengers' Moving Map for your aircraft. Made for the iPad and the iPhone
More information here

LFLY Bron


Lyon FRANCE   VFR


METAR LFLY 180900Z AUTO 35008KT 9999 BKN015 01/M02 Q1019 NOSIG 0h07min

TAF LFLY 180500Z 1806/1906 36008KT 9999 SCT014 BKN030 TEMPO 1806/1809 BKN010 BECMG 1811/1813 SCT025 BECMG 1813/1815 NSC PROB40 TEMPO 1822/1906 3000 BR SCT010 4h07min





NOTAMS

OPEN